createdAt,value
2017-12-08T00:00:47.494Z,62.8
2017-12-08T00:01:49.225Z,63
2017-12-08T00:02:50.978Z,62.9
2017-12-08T00:03:52.898Z,62.9
2017-12-08T00:04:54.714Z,63.1
2017-12-08T00:05:56.543Z,63.1
2017-12-08T00:06:58.403Z,63.6
2017-12-08T00:08:01.111Z,63.7
2017-12-08T00:09:02.790Z,63.6
2017-12-08T00:10:04.901Z,63.7
2017-12-08T00:11:08.374Z,63.9
2017-12-08T00:12:10.215Z,63.7
2017-12-08T00:13:12.011Z,63.2
2017-12-08T00:14:14.330Z,63.3
2017-12-08T00:15:16.407Z,63.6
2017-12-08T00:16:18.295Z,62.8
2017-12-08T00:17:20.115Z,63.7
2017-12-08T00:18:21.976Z,62.5
2017-12-08T00:19:23.732Z,63
2017-12-08T00:20:25.780Z,62.1
2017-12-08T00:21:29.177Z,62.1
2017-12-08T00:22:30.937Z,62.7
2017-12-08T00:23:32.627Z,62.8
2017-12-08T00:24:34.372Z,63
2017-12-08T00:25:37.156Z,63.3
2017-12-08T00:26:38.867Z,63.2
2017-12-08T00:27:40.744Z,62.6
2017-12-08T00:28:42.472Z,62.1
2017-12-08T00:29:44.287Z,61.6
2017-12-08T00:46:30.739Z,62.8
2017-12-08T00:47:34.185Z,63.3
2017-12-08T00:48:36.239Z,63.3
2017-12-08T00:49:38.034Z,63.6
2017-12-08T00:50:39.909Z,64.5
2017-12-08T00:51:41.695Z,65
2017-12-08T00:52:43.486Z,64.8
2017-12-08T00:53:45.141Z,65.2
2017-12-08T00:54:46.992Z,65.1
2017-12-08T00:55:48.775Z,64.9
2017-12-08T00:56:50.722Z,65
2017-12-08T00:57:54.059Z,64.6
2017-12-08T00:58:57.135Z,65.1
2017-12-08T00:59:59.027Z,65.6
2017-12-08T01:01:00.753Z,65.8
2017-12-08T01:02:02.546Z,65.4
2017-12-08T01:03:04.963Z,65.3
2017-12-08T01:04:06.837Z,65.3
2017-12-08T01:05:08.503Z,65
2017-12-08T01:06:10.352Z,65.3
2017-12-08T01:07:12.133Z,64.8
2017-12-08T01:08:15.751Z,64.9
2017-12-08T01:09:17.607Z,65.2
2017-12-08T01:10:19.271Z,65.2
2017-12-08T01:11:20.989Z,65.7
2017-12-08T01:20:23.793Z,70.5
2017-12-08T01:21:25.712Z,71.1
2017-12-08T01:22:27.462Z,71.2
2017-12-08T01:23:29.399Z,71.6
2017-12-08T01:24:31.180Z,71.8
2017-12-08T01:25:33.094Z,71.8
2017-12-08T01:26:34.955Z,71.7
2017-12-08T01:27:36.728Z,71.6
2017-12-08T01:28:38.489Z,71.6
2017-12-08T01:29:40.355Z,71.6
2017-12-08T01:30:43.942Z,71.6
2017-12-08T01:31:45.788Z,71.3
2017-12-08T01:32:47.572Z,70.7
2017-12-08T01:33:49.416Z,71.3
2017-12-08T01:34:51.261Z,70.7
2017-12-08T01:35:53.147Z,70.6
2017-12-08T01:36:54.906Z,70.7
2017-12-08T01:37:56.760Z,70.7
2017-12-08T01:38:58.585Z,71.2
2017-12-08T01:40:00.542Z,71.1
2017-12-08T01:41:04.028Z,71.1
2017-12-08T01:42:05.900Z,71.2
2017-12-08T01:43:07.631Z,71.2
2017-12-08T01:44:09.598Z,70.9
2017-12-08T01:45:11.494Z,70.5
2017-12-08T01:46:13.335Z,70.6
2017-12-08T01:47:15.257Z,70.1
2017-12-08T01:48:17.979Z,69.7
2017-12-08T01:49:19.815Z,69
2017-12-08T01:50:21.729Z,68.5
2017-12-08T01:51:25.536Z,67.8
2017-12-08T01:52:27.551Z,66.8
2017-12-08T01:53:29.962Z,66.2
2017-12-08T01:54:31.897Z,66.3
2017-12-08T01:55:33.741Z,66.2
2017-12-08T01:56:35.737Z,66
2017-12-08T01:57:37.583Z,66.1
2017-12-08T01:58:39.567Z,66
2017-12-08T01:59:41.420Z,66.3
2017-12-08T02:00:43.412Z,66.2
2017-12-08T02:01:47.336Z,66.3
2017-12-08T02:02:49.228Z,66.4
2017-12-08T02:03:51.120Z,66.7
2017-12-08T02:04:53.063Z,67
2017-12-08T02:05:54.948Z,67.4
2017-12-08T02:06:56.909Z,67.5
2017-12-08T02:07:58.872Z,67.6
2017-12-08T02:09:00.911Z,66.9
2017-12-08T02:10:02.918Z,66.6
2017-12-08T02:11:04.947Z,66.9
2017-12-08T02:12:08.896Z,66.9
2017-12-08T02:13:10.868Z,66.6
2017-12-08T02:14:12.766Z,67.5
2017-12-08T02:15:14.604Z,67.6
2017-12-08T02:16:16.504Z,66.7
2017-12-08T02:17:18.716Z,67.1
2017-12-08T02:18:20.635Z,66.4
2017-12-08T02:19:22.566Z,66.2
2017-12-08T02:20:24.506Z,66
2017-12-08T02:21:26.535Z,66.3
2017-12-08T02:22:30.630Z,66.5
2017-12-08T02:23:32.554Z,65.4
2017-12-08T02:24:34.535Z,65.3
2017-12-08T02:25:36.367Z,65
2017-12-08T02:26:38.262Z,65
2017-12-08T02:27:40.194Z,65.1
2017-12-08T02:28:42.119Z,66.1
2017-12-08T02:29:44.106Z,66.2
2017-12-08T02:30:46.088Z,66.9
2017-12-08T02:31:47.944Z,66.5
2017-12-08T02:32:51.696Z,66.3
2017-12-08T02:33:53.623Z,66.2
2017-12-08T02:34:55.660Z,67.1
2017-12-08T02:35:57.625Z,66.8
2017-12-08T02:36:59.542Z,67.8
2017-12-08T02:38:01.705Z,67.3
2017-12-08T02:39:03.761Z,67.8
2017-12-08T02:40:06.312Z,68.3
2017-12-08T02:41:08.138Z,68.7
2017-12-08T02:42:10.035Z,69.3
2017-12-08T02:43:13.889Z,69.5
2017-12-08T02:44:15.826Z,69.6
2017-12-08T02:45:17.772Z,70.1
2017-12-08T02:46:19.786Z,70
2017-12-08T02:47:21.662Z,71.2
2017-12-08T02:48:23.530Z,70.6
2017-12-08T02:49:25.506Z,70.4
2017-12-08T02:50:27.495Z,70.7
2017-12-08T02:51:29.411Z,70.5
2017-12-08T02:52:31.279Z,71
2017-12-08T02:53:34.956Z,71.5
2017-12-08T02:54:36.801Z,70.6
2017-12-08T02:55:38.659Z,70.4
2017-12-08T02:56:40.554Z,69.9
2017-12-08T02:57:42.566Z,69.5
2017-12-08T02:58:44.583Z,67.4
2017-12-08T02:59:46.415Z,66
2017-12-08T03:00:58.290Z,65.1
2017-12-08T03:02:00.281Z,64
2017-12-08T03:03:02.229Z,63.8
2017-12-08T03:04:06.235Z,63.7
2017-12-08T03:05:08.149Z,63.1
2017-12-08T03:06:10.076Z,62.6
2017-12-08T03:07:12.020Z,61.5
2017-12-08T03:08:13.918Z,61.2
2017-12-08T03:09:15.860Z,61.6
2017-12-08T03:10:17.742Z,61.1
2017-12-08T03:11:19.630Z,62.6
2017-12-08T03:12:21.570Z,63.3
2017-12-08T03:13:23.502Z,63.1
2017-12-08T03:14:27.190Z,63
2017-12-08T03:15:29.219Z,62.5
2017-12-08T03:16:31.233Z,62.7
2017-12-08T03:17:33.186Z,62.7
2017-12-08T03:18:35.655Z,62.8
2017-12-08T03:19:37.881Z,62.8
2017-12-08T03:20:39.936Z,62.7
2017-12-08T03:21:41.873Z,62.2
2017-12-08T03:22:43.808Z,61.9
2017-12-08T03:23:45.745Z,62
2017-12-08T03:24:49.527Z,61.9
2017-12-08T03:25:51.575Z,62.4
2017-12-08T03:26:53.495Z,62.2
2017-12-08T03:27:55.349Z,63.2
2017-12-08T03:28:57.295Z,61.9
2017-12-08T03:29:59.254Z,62.4
2017-12-08T03:31:01.842Z,62.5
2017-12-08T03:32:04.419Z,63.1
2017-12-08T03:33:06.420Z,62.7
2017-12-08T03:34:08.448Z,62.4
2017-12-08T03:35:12.464Z,62.5
2017-12-08T03:36:14.378Z,62.5
2017-12-08T03:37:16.269Z,62.9
2017-12-08T03:38:18.254Z,62.6
2017-12-08T03:39:20.172Z,62.9
2017-12-08T03:40:23.059Z,63.4
2017-12-08T03:41:25.015Z,63.5
2017-12-08T03:42:27.014Z,64
2017-12-08T03:43:28.939Z,63.7
2017-12-08T03:44:31.358Z,64.2
2017-12-08T03:45:35.064Z,64.5
2017-12-08T03:46:36.949Z,64.4
2017-12-08T03:47:38.902Z,65.3
2017-12-08T03:48:40.853Z,65.4
2017-12-08T03:49:42.755Z,65.9
2017-12-08T03:50:44.708Z,66.1
2017-12-08T03:51:46.607Z,66.7
2017-12-08T03:52:48.506Z,66.3
2017-12-08T03:53:50.901Z,67.3
2017-12-08T03:54:52.860Z,66.8
2017-12-08T03:55:56.494Z,66.6
2017-12-08T03:56:59.347Z,66.6
2017-12-08T03:58:01.283Z,66.4
2017-12-08T03:59:03.135Z,66.6
2017-12-08T04:00:04.994Z,66.7
2017-12-08T04:01:07.096Z,66.3
2017-12-08T04:02:08.901Z,66.3
2017-12-08T04:03:11.324Z,66.2
2017-12-08T04:04:13.799Z,66.7
2017-12-08T04:05:15.759Z,67
2017-12-08T04:06:19.436Z,67.2
2017-12-08T04:07:21.332Z,67.2
2017-12-08T04:08:23.678Z,67.6
2017-12-08T04:09:25.606Z,66.5
2017-12-08T04:10:27.568Z,66.5
2017-12-08T04:11:29.772Z,67.4
2017-12-08T04:12:31.713Z,66.8
2017-12-08T04:13:33.576Z,66.6
2017-12-08T04:14:35.585Z,66.6
2017-12-08T04:15:38.049Z,66.8
2017-12-08T04:16:42.081Z,67.2
2017-12-08T04:17:43.989Z,66.9
2017-12-08T04:18:45.976Z,67
2017-12-08T04:19:47.990Z,67.4
2017-12-08T04:20:50.553Z,66.6
2017-12-08T04:21:52.443Z,67
2017-12-08T04:22:54.386Z,67.3
2017-12-08T04:23:56.313Z,67.6
2017-12-08T04:24:58.250Z,68.4
2017-12-08T04:26:00.292Z,67.2
2017-12-08T04:27:04.583Z,67
2017-12-08T04:28:07.052Z,66.5
2017-12-08T04:29:09.030Z,67.5
2017-12-08T04:30:11.000Z,67.2
2017-12-08T04:31:13.010Z,67.8
2017-12-08T04:32:15.004Z,67.5
2017-12-08T04:33:16.920Z,67
2017-12-08T04:34:18.870Z,67.1
2017-12-08T04:35:20.748Z,67.2
2017-12-08T04:36:22.717Z,67.4
2017-12-08T04:37:26.476Z,67.9
2017-12-08T04:38:28.433Z,67.7
2017-12-08T04:39:30.341Z,67.9
2017-12-08T04:40:32.221Z,67
2017-12-08T04:41:34.177Z,66.8
2017-12-08T04:42:36.161Z,66.9
2017-12-08T04:43:38.015Z,66.9
2017-12-08T04:44:39.938Z,67.3
2017-12-08T04:45:41.898Z,67.3
2017-12-08T04:46:43.842Z,67.4
2017-12-08T04:47:47.509Z,67.5
2017-12-08T04:48:49.522Z,67.3
2017-12-08T04:49:51.478Z,67.1
2017-12-08T04:50:53.427Z,67.3
2017-12-08T04:51:55.380Z,67.2
2017-12-08T04:52:57.364Z,67.3
2017-12-08T04:53:59.255Z,67.8
2017-12-08T04:55:01.105Z,67.7
2017-12-08T04:56:03.123Z,67.4
2017-12-08T04:57:05.112Z,68
2017-12-08T04:58:08.809Z,68.7
2017-12-08T04:59:10.705Z,68.5
2017-12-08T05:00:12.713Z,67.8
2017-12-08T05:01:14.732Z,67.4
2017-12-08T05:02:16.733Z,67.9
2017-12-08T05:03:18.738Z,67.7
2017-12-08T05:04:21.356Z,68
2017-12-08T05:05:23.225Z,67.7
2017-12-08T05:06:25.177Z,68
2017-12-08T05:07:27.062Z,67.9
2017-12-08T05:08:30.837Z,67.8
2017-12-08T05:09:32.746Z,68
2017-12-08T05:10:34.698Z,68.3
2017-12-08T05:11:36.629Z,68.4
2017-12-08T05:12:38.640Z,68.3
2017-12-08T05:13:40.628Z,68.3
2017-12-08T05:14:42.616Z,67.8
2017-12-08T05:15:44.536Z,67.8
2017-12-08T05:16:46.521Z,68.4
2017-12-08T05:17:48.445Z,67.7
2017-12-08T05:18:52.196Z,68
2017-12-08T05:19:54.117Z,68
2017-12-08T05:20:56.075Z,68.1
2017-12-08T05:21:58.001Z,68.4
2017-12-08T05:22:59.912Z,68.6
2017-12-08T05:24:02.171Z,68.6
2017-12-08T05:25:04.016Z,68.7
2017-12-08T05:26:05.864Z,69.2
2017-12-08T05:27:07.762Z,69.1
2017-12-08T05:28:09.738Z,69.2
2017-12-08T05:29:13.407Z,69.6
2017-12-08T05:30:15.422Z,69.7
2017-12-08T05:31:17.412Z,69.6
2017-12-08T05:32:19.295Z,69.3
2017-12-08T05:33:21.187Z,69.7
2017-12-08T05:34:23.137Z,69.1
2017-12-08T05:35:25.098Z,68.9
2017-12-08T05:36:27.037Z,68.8
2017-12-08T05:37:29.012Z,69
2017-12-08T05:38:30.886Z,69.1
2017-12-08T05:39:34.635Z,69.3
2017-12-08T05:40:36.630Z,68.7
2017-12-08T05:41:38.540Z,68.7
2017-12-08T05:42:40.390Z,68.4
2017-12-08T05:43:42.357Z,67.9
2017-12-08T05:44:44.345Z,68.1
2017-12-08T05:45:46.873Z,68.4
2017-12-08T05:46:48.774Z,68.9
2017-12-08T05:47:50.785Z,68.7
2017-12-08T05:48:52.799Z,68.9
2017-12-08T05:49:56.422Z,68.9
2017-12-08T05:50:59.304Z,68.7
2017-12-08T05:52:01.253Z,68.5
2017-12-08T05:53:03.237Z,68.5
2017-12-08T05:54:05.193Z,68.6
2017-12-08T05:55:07.184Z,68.6
2017-12-08T05:56:09.166Z,68.3
2017-12-08T05:57:11.053Z,68.4
2017-12-08T05:58:13.001Z,68.9
2017-12-08T05:59:14.956Z,68.9
2017-12-08T06:00:19.279Z,68.2
2017-12-08T06:01:21.762Z,68
2017-12-08T06:02:23.721Z,67.7
2017-12-08T06:03:25.580Z,67.7
2017-12-08T06:04:27.493Z,67.7
2017-12-08T06:05:29.457Z,67.7
2017-12-08T06:06:31.425Z,67.7
2017-12-08T06:07:33.958Z,67.9
2017-12-08T06:08:35.908Z,67.9
2017-12-08T06:09:37.865Z,67.7
2017-12-08T06:10:42.246Z,67.6
2017-12-08T06:11:44.090Z,67.9
2017-12-08T06:12:46.017Z,68.1
2017-12-08T06:13:47.883Z,68.3
2017-12-08T06:14:49.735Z,68.8
2017-12-08T06:15:51.696Z,68.8
2017-12-08T06:16:53.557Z,68.9
2017-12-08T06:17:55.508Z,69.7
2017-12-08T06:18:57.386Z,69.6
2017-12-08T06:19:59.269Z,70
2017-12-08T06:21:02.928Z,69.4
2017-12-08T06:22:05.384Z,69.4
2017-12-08T06:23:07.383Z,69.5
2017-12-08T06:24:09.335Z,69.8
2017-12-08T06:25:11.307Z,70
2017-12-08T06:26:13.824Z,71
2017-12-08T06:27:15.733Z,70.5
2017-12-08T06:28:17.691Z,71
2017-12-08T06:29:19.705Z,70.7
2017-12-08T06:30:21.701Z,70.7
2017-12-08T06:31:25.972Z,71
2017-12-08T06:32:27.963Z,71.3
2017-12-08T06:33:29.852Z,71.2
2017-12-08T06:34:31.739Z,71.5
2017-12-08T06:35:34.339Z,71.3
2017-12-08T06:36:36.341Z,71.5
2017-12-08T06:37:38.240Z,71.6
2017-12-08T06:38:40.160Z,71.9
2017-12-08T06:39:42.734Z,71.9
2017-12-08T06:40:44.782Z,72.6
2017-12-08T06:41:48.580Z,72.7
2017-12-08T06:42:51.489Z,72.8
2017-12-08T06:43:53.432Z,72.9
2017-12-08T06:44:55.375Z,72.6
2017-12-08T06:45:57.367Z,73
2017-12-08T06:47:00.218Z,72.7
2017-12-08T06:48:02.167Z,72.7
2017-12-08T06:49:04.740Z,72.9
2017-12-08T06:50:06.687Z,72.9
2017-12-08T06:51:08.591Z,73.1
2017-12-08T06:52:12.302Z,73.7
2017-12-08T06:53:14.181Z,73.4
2017-12-08T06:54:16.730Z,73.3
2017-12-08T06:55:18.732Z,73
2017-12-08T06:56:20.650Z,73
2017-12-08T06:57:22.690Z,73
2017-12-08T06:58:24.603Z,72.6
2017-12-08T06:59:26.562Z,72.5
2017-12-08T07:00:28.544Z,72.8
2017-12-08T07:01:30.545Z,72.6
2017-12-08T07:02:34.372Z,72.5
2017-12-08T07:03:36.357Z,72.5
2017-12-08T07:04:38.345Z,72.5
2017-12-08T07:05:40.323Z,72.7
2017-12-08T07:06:42.324Z,72.9
2017-12-08T07:07:44.294Z,72.8
2017-12-08T07:08:46.282Z,72.9
2017-12-08T07:09:48.960Z,73.1
2017-12-08T07:10:50.866Z,73.7
2017-12-08T07:11:52.834Z,73.7
2017-12-08T07:12:56.698Z,73.8
2017-12-08T07:13:58.681Z,74.7
2017-12-08T07:15:00.605Z,75.9
2017-12-08T07:16:02.552Z,76.5
2017-12-08T07:17:04.497Z,76.3
2017-12-08T07:18:06.488Z,76.6
2017-12-08T07:19:08.482Z,75.9
2017-12-08T07:20:10.397Z,75.7
2017-12-08T07:21:12.223Z,76.1
2017-12-08T07:22:14.272Z,76.6
2017-12-08T07:23:18.064Z,76
2017-12-08T07:24:20.014Z,77.7
2017-12-08T07:25:21.935Z,78.1
2017-12-08T07:26:23.846Z,78
2017-12-08T07:27:25.737Z,78
2017-12-08T07:28:27.639Z,77.6
2017-12-08T07:29:29.575Z,77.9
2017-12-08T07:30:31.498Z,77.7
2017-12-08T07:31:33.445Z,77.6
2017-12-08T07:32:35.422Z,78
2017-12-08T07:33:39.098Z,77.9
2017-12-08T07:34:40.983Z,77.9
2017-12-08T07:35:42.932Z,78.5
2017-12-08T07:36:44.837Z,79.2
2017-12-08T07:37:47.392Z,79.3
2017-12-08T07:38:49.409Z,79.6
2017-12-08T07:39:51.397Z,79.7
2017-12-08T07:40:53.317Z,79
2017-12-08T07:41:55.193Z,79
2017-12-08T07:42:57.145Z,79.2
2017-12-08T07:44:00.979Z,79.5
2017-12-08T07:45:02.942Z,78.9
2017-12-08T07:46:04.812Z,79.6
2017-12-08T07:47:06.773Z,79.9
2017-12-08T07:48:08.722Z,80.1
2017-12-08T07:49:10.747Z,79.3
2017-12-08T07:50:12.700Z,79.2
2017-12-08T07:51:14.606Z,79.6
2017-12-08T07:52:16.639Z,79.9
2017-12-08T07:53:18.606Z,79.4
2017-12-08T07:54:23.100Z,79.5
2017-12-08T07:55:25.050Z,79.5
2017-12-08T07:56:27.027Z,80.2
2017-12-08T07:57:28.965Z,79.6
2017-12-08T07:58:30.743Z,80.4
2017-12-08T07:59:32.629Z,80.2
2017-12-08T08:00:34.488Z,81.1
2017-12-08T08:01:36.520Z,80.4
2017-12-08T08:02:38.429Z,80.2
2017-12-08T08:03:40.368Z,80.4
2017-12-08T08:04:44.749Z,80
2017-12-08T08:05:46.610Z,80.4
2017-12-08T08:06:48.550Z,80.5
2017-12-08T08:07:50.565Z,80.9
2017-12-08T08:08:52.490Z,82.2
2017-12-08T08:09:54.377Z,81.9
2017-12-08T08:10:56.300Z,82.5
2017-12-08T08:11:58.205Z,82.6
2017-12-08T08:13:00.066Z,82.5
2017-12-08T08:14:02.025Z,81.4
2017-12-08T08:15:05.781Z,82.3
2017-12-08T08:16:07.700Z,82.7
2017-12-08T08:17:09.655Z,82.3
2017-12-08T08:18:11.635Z,82.4
2017-12-08T08:19:13.582Z,82.7
2017-12-08T08:20:15.649Z,83.2
2017-12-08T08:21:17.654Z,82.6
2017-12-08T08:22:19.624Z,82.4
2017-12-08T08:23:21.526Z,83
2017-12-08T08:24:23.425Z,83.1
2017-12-08T08:25:27.095Z,82.8
2017-12-08T08:26:29.012Z,83.2
2017-12-08T08:27:30.951Z,83.8
2017-12-08T08:28:32.950Z,83
2017-12-08T08:29:36.460Z,83.1
2017-12-08T08:30:38.352Z,83.6
2017-12-08T08:31:40.354Z,83.4
2017-12-08T08:32:42.877Z,83.7
2017-12-08T08:33:45.777Z,84.4
2017-12-08T08:34:47.788Z,84.2
2017-12-08T08:35:51.533Z,83.4
2017-12-08T08:36:53.497Z,84.5
2017-12-08T08:37:55.518Z,84.2
2017-12-08T08:38:57.460Z,84.3
2017-12-08T08:39:59.446Z,84.8
2017-12-08T08:41:01.469Z,84.8
2017-12-08T08:42:03.459Z,84.7
2017-12-08T08:43:05.411Z,84.3
2017-12-08T08:44:07.361Z,84.2
2017-12-08T08:45:09.330Z,84.1
2017-12-08T08:46:13.213Z,84.1
2017-12-08T08:47:15.163Z,83.3
2017-12-08T08:48:17.119Z,83.4
2017-12-08T08:49:19.134Z,83.3
2017-12-08T08:50:21.171Z,83.3
2017-12-08T08:51:23.194Z,83.6
2017-12-08T08:52:25.710Z,82.8
2017-12-08T08:53:27.637Z,82.8
2017-12-08T08:54:29.539Z,82.8
2017-12-08T08:55:31.472Z,83.7
2017-12-08T08:56:35.129Z,83.7
2017-12-08T08:57:37.052Z,84.2
2017-12-08T08:58:39.041Z,84.1
2017-12-08T08:59:40.988Z,84
2017-12-08T09:00:42.940Z,84.3
2017-12-08T09:01:44.930Z,84
2017-12-08T09:02:47.868Z,84.1
2017-12-08T09:03:49.826Z,84.2
2017-12-08T09:04:51.609Z,83.9
2017-12-08T09:05:53.492Z,84.1
2017-12-08T09:06:57.847Z,84.5
2017-12-08T09:07:59.778Z,84.5
2017-12-08T09:09:01.796Z,84.2
2017-12-08T09:10:03.813Z,84.1
2017-12-08T09:11:06.430Z,84.6
2017-12-08T09:12:08.663Z,84.9
2017-12-08T09:13:10.681Z,85.4
2017-12-08T09:14:13.258Z,84.8
2017-12-08T09:15:17.361Z,86.1
2017-12-08T09:16:19.337Z,86
2017-12-08T09:17:23.170Z,85
2017-12-08T09:18:25.683Z,84.5
2017-12-08T09:19:27.661Z,85.3
2017-12-08T09:20:29.628Z,85.5
2017-12-08T09:21:33.160Z,85.4
2017-12-08T09:22:36.321Z,85.3
2017-12-08T09:23:38.838Z,84.8
2017-12-08T09:24:41.127Z,85
2017-12-08T09:25:43.713Z,85.1
2017-12-08T09:26:45.664Z,85.4
2017-12-08T09:27:50.053Z,85.1
2017-12-08T09:28:52.178Z,85
2017-12-08T09:29:53.922Z,85
2017-12-08T09:30:57.516Z,84.7
2017-12-08T09:32:00.715Z,84.6
2017-12-08T09:33:07.083Z,84.4
2017-12-08T09:34:10.320Z,84.8
2017-12-08T09:35:12.100Z,84.8
2017-12-08T09:36:14.034Z,84.9
2017-12-08T09:37:16.029Z,84.8
2017-12-08T09:38:19.802Z,85.2
2017-12-08T09:39:22.348Z,85
2017-12-08T09:40:24.335Z,85
2017-12-08T09:41:26.904Z,85
2017-12-08T09:42:29.843Z,85.3
2017-12-08T09:43:31.837Z,85.9
2017-12-08T09:44:34.495Z,85.7
2017-12-08T09:45:38.239Z,85.7
2017-12-08T09:46:40.213Z,85.6
2017-12-08T09:47:42.200Z,86.3
2017-12-08T09:48:45.952Z,86.6
2017-12-08T09:49:48.903Z,86.7
2017-12-08T09:50:52.430Z,86.5
2017-12-08T09:51:55.422Z,86.3
2017-12-08T09:52:57.424Z,86.5
2017-12-08T09:53:59.386Z,86.5
2017-12-08T09:55:01.353Z,86.1
2017-12-08T09:56:03.360Z,86.3
2017-12-08T09:57:05.798Z,86.5
2017-12-08T09:58:07.636Z,86.5
2017-12-08T09:59:11.390Z,85.7
2017-12-08T10:00:13.343Z,86.9
2017-12-08T10:01:15.719Z,86.8
2017-12-08T10:02:17.679Z,86.4
2017-12-08T10:03:19.618Z,86.6
2017-12-08T10:04:21.599Z,86.7
2017-12-08T10:05:23.573Z,85.9
2017-12-08T10:06:25.578Z,85.6
2017-12-08T10:07:27.495Z,85.9
2017-12-08T10:08:29.439Z,85.1
2017-12-08T10:09:33.903Z,84.4
2017-12-08T10:10:35.999Z,84
2017-12-08T10:11:38.033Z,84
2017-12-08T10:12:40.038Z,84.1
2017-12-08T10:13:42.021Z,85.1
2017-12-08T10:14:44.034Z,85.1
2017-12-08T10:15:45.924Z,85.6
2017-12-08T10:16:48.008Z,85.4
2017-12-08T10:17:51.548Z,85.6
2017-12-08T10:18:54.066Z,85.5
2017-12-08T10:19:57.732Z,85.1
2017-12-08T10:20:59.742Z,85.1
2017-12-08T10:22:02.310Z,85.6
2017-12-08T10:23:04.277Z,85.4
2017-12-08T10:24:06.215Z,85.7
2017-12-08T10:25:08.220Z,86
2017-12-08T10:26:10.148Z,85.6
2017-12-08T10:27:12.110Z,85.7
2017-12-08T10:28:14.070Z,85.7
2017-12-08T10:29:16.561Z,85.6
2017-12-08T10:30:20.393Z,85.9
2017-12-08T10:31:22.278Z,85.6
2017-12-08T10:32:24.274Z,86
2017-12-08T10:33:26.220Z,86.1
2017-12-08T10:34:28.172Z,86.8
2017-12-08T10:35:30.197Z,86.3
2017-12-08T10:36:32.199Z,85.9
2017-12-08T10:37:34.159Z,85.8
2017-12-08T10:38:36.081Z,85.4
2017-12-08T10:39:37.699Z,85.7
2017-12-08T10:40:41.337Z,85.6
2017-12-08T10:41:43.346Z,85.9
2017-12-08T10:42:45.371Z,85.8
2017-12-08T10:43:47.307Z,85.9
2017-12-08T10:44:49.242Z,85.8
2017-12-08T10:45:51.227Z,86.4
2017-12-08T10:46:53.267Z,85.9
2017-12-08T10:47:55.255Z,85.9
2017-12-08T10:48:57.220Z,86
2017-12-08T10:50:00.209Z,86.5
2017-12-08T10:51:03.952Z,86.4
2017-12-08T10:52:05.842Z,86.5
2017-12-08T10:53:07.879Z,87.5
2017-12-08T10:54:09.874Z,86.8
2017-12-08T10:55:11.845Z,86.5
2017-12-08T10:56:13.801Z,86.6
2017-12-08T10:57:16.465Z,86.5
2017-12-08T10:58:18.488Z,86.3
2017-12-08T10:59:20.477Z,86
2017-12-08T11:00:23.075Z,85.1
2017-12-08T11:01:26.844Z,85.4
2017-12-08T11:02:28.825Z,84.9
2017-12-08T11:03:30.810Z,85.9
2017-12-08T11:04:33.307Z,86.1
2017-12-08T11:05:35.285Z,86.7
2017-12-08T11:06:37.286Z,86.3
2017-12-08T11:07:39.276Z,86.3
2017-12-08T11:08:41.252Z,86.2
2017-12-08T11:09:43.231Z,86.3
2017-12-08T11:10:45.090Z,85.9
2017-12-08T11:11:48.863Z,85.9
2017-12-08T11:12:50.808Z,85.8
2017-12-08T11:13:54.575Z,86
2017-12-08T11:14:57.134Z,86.1
2017-12-08T11:15:59.098Z,86
2017-12-08T11:17:01.051Z,86.1
2017-12-08T11:18:03.037Z,86.4
2017-12-08T11:19:05.056Z,85.7
2017-12-08T11:20:06.991Z,85.3
2017-12-08T11:21:08.963Z,85.7
2017-12-08T11:22:13.406Z,85.6
2017-12-08T11:23:15.403Z,85.6
2017-12-08T11:24:17.357Z,85.4
2017-12-08T11:25:19.320Z,85.3
2017-12-08T11:26:21.258Z,85.6
2017-12-08T11:27:23.196Z,85.7
2017-12-08T11:28:25.052Z,85.5
2017-12-08T11:29:27.042Z,86.1
2017-12-08T11:30:29.026Z,85.9
2017-12-08T11:31:31.021Z,85.9
2017-12-08T11:32:34.775Z,85.6
2017-12-08T11:33:36.726Z,85.9
2017-12-08T11:34:38.648Z,86.2
2017-12-08T11:35:40.618Z,86.3
2017-12-08T11:36:42.584Z,86.5
2017-12-08T11:37:44.566Z,86.7
2017-12-08T11:38:46.528Z,86.9
2017-12-08T11:39:48.471Z,86.6
2017-12-08T11:40:50.401Z,86.6
2017-12-08T11:53:33.212Z,58.3
2017-12-08T11:53:46.586Z,58.6
2017-12-08T11:54:53.810Z,58.1
2017-12-08T13:31:55.392Z,51.8
2017-12-08T13:33:02.321Z,51
2017-12-08T13:34:05.599Z,48
2017-12-08T13:35:09.264Z,46.7
2017-12-08T13:36:12.506Z,45.6
2017-12-08T13:38:23.139Z,51.9
2017-12-08T13:39:30.024Z,49.3
2017-12-08T13:40:35.178Z,44.3
2017-12-08T13:41:17.277Z,43.2
2017-12-08T13:42:24.397Z,42.7
2017-12-08T13:43:27.940Z,42.1
2017-12-08T13:44:23.472Z,41.6
2017-12-08T13:45:30.274Z,41.3
2017-12-08T13:46:35.516Z,40.9
2017-12-08T13:47:09.775Z,40.7
2017-12-08T13:48:16.483Z,40.5
2017-12-08T13:49:19.818Z,40.4
2017-12-08T13:50:06.126Z,40.2
2017-12-08T13:51:12.992Z,40.7
2017-12-08T13:52:16.326Z,40
2017-12-08T13:55:58.708Z,40
2017-12-08T13:57:05.640Z,39.5
2017-12-08T14:07:42.608Z,49.7
2017-12-08T14:08:49.548Z,48
2017-12-08T14:09:52.939Z,44.7
2017-12-08T14:10:56.172Z,43.4
2017-12-08T14:11:59.521Z,42.9
2017-12-08T14:13:02.803Z,41.8
2017-12-08T14:14:06.134Z,41.1
2017-12-08T14:15:09.466Z,40.7
2017-12-08T14:16:12.798Z,40.2
2017-12-08T14:17:16.255Z,39.9
2017-12-08T14:18:21.601Z,39.4
2017-12-08T14:19:28.459Z,39.1
2017-12-08T14:20:31.842Z,39.3
2017-12-08T14:21:35.509Z,39.5
2017-12-08T14:22:38.963Z,38.8
2017-12-08T14:23:42.241Z,38.4
2017-12-08T14:24:45.417Z,38.2
2017-12-08T14:31:18.022Z,46.3
2017-12-08T14:32:21.605Z,61.4
2017-12-08T14:33:26.065Z,63.9
2017-12-08T14:34:32.856Z,66
2017-12-08T14:35:36.391Z,67.8
2017-12-08T14:36:43.912Z,69.2
2017-12-08T14:37:54.304Z,71
2017-12-08T14:39:00.383Z,71.1
2017-12-08T14:40:26.727Z,71.3
2017-12-08T14:41:38.425Z,72.2
2017-12-08T14:42:49.009Z,72.9
2017-12-08T14:43:56.740Z,74.3
2017-12-08T14:45:13.815Z,74.1
2017-12-08T14:46:25.022Z,78.9
2017-12-08T14:47:29.298Z,74.2
2017-12-08T14:48:32.802Z,73.9
2017-12-08T14:49:37.425Z,73.6
2017-12-08T14:50:41.074Z,73.6
2017-12-08T14:51:45.430Z,74.6
2017-12-08T14:52:49.402Z,75.5
2017-12-08T14:53:53.573Z,75.6
2017-12-08T14:54:57.595Z,76.5
2017-12-08T14:56:01.041Z,77.3
2017-12-08T14:57:08.131Z,77.8
2017-12-08T14:58:14.498Z,78.3
2017-12-08T14:59:18.708Z,77.6
2017-12-08T15:00:23.940Z,77.6
2017-12-08T15:01:31.884Z,77.3
2017-12-08T15:02:38.107Z,77.4
2017-12-08T15:03:44.409Z,77.4
2017-12-08T15:04:50.290Z,77.4
2017-12-08T15:05:56.960Z,76.4
2017-12-08T15:07:05.033Z,76.2
2017-12-08T15:08:15.272Z,76.6
2017-12-08T15:09:21.712Z,76.9
2017-12-08T15:10:31.968Z,77.6
2017-12-08T15:11:36.702Z,77.3
2017-12-08T15:12:43.404Z,77.8
2017-12-08T15:13:52.519Z,77.9
2017-12-08T15:14:58.325Z,77.8
2017-12-08T15:16:06.101Z,77.7
2017-12-08T15:17:11.350Z,77.6
2017-12-08T15:18:20.004Z,78.1
2017-12-08T15:19:30.513Z,78.3
2017-12-08T15:20:40.263Z,77.8
2017-12-08T15:21:45.428Z,77.6
2017-12-08T15:22:55.044Z,76.6
2017-12-08T15:24:01.453Z,76.5
2017-12-08T15:25:04.851Z,77.1
2017-12-08T15:26:08.240Z,77.5
2017-12-08T15:27:12.949Z,77.7
2017-12-08T15:28:17.953Z,77.9
2017-12-08T15:29:24.061Z,78.1
2017-12-08T15:30:36.497Z,77.7
2017-12-08T15:31:43.439Z,77.4
2017-12-08T15:32:46.867Z,77.5
2017-12-08T15:33:51.318Z,77.7
2017-12-08T15:34:54.758Z,77.5
2017-12-08T15:35:59.542Z,76.7
2017-12-08T15:37:07.658Z,77.3
2017-12-08T15:38:12.822Z,77.3
2017-12-08T15:39:21.708Z,76.5
2017-12-08T15:40:28.245Z,76.5
2017-12-08T15:41:44.077Z,76.6
2017-12-08T15:42:48.692Z,77.2
2017-12-08T15:43:55.836Z,77.3
2017-12-08T15:45:05.563Z,77.7
2017-12-08T15:46:17.034Z,77.9
2017-12-08T15:47:20.453Z,78.2
2017-12-08T15:48:25.275Z,78.4
2017-12-08T15:49:29.413Z,78.9
2017-12-08T15:50:36.634Z,78.8
2017-12-08T15:51:41.638Z,78.9
2017-12-08T15:52:54.106Z,79
2017-12-08T15:54:03.976Z,79.2
2017-12-08T15:55:10.499Z,78.9
2017-12-08T15:56:15.623Z,78.8
2017-12-08T15:57:19.605Z,78.7
2017-12-08T15:58:25.210Z,79.3
2017-12-08T15:59:29.155Z,80.4
2017-12-08T16:00:34.135Z,79.3
2017-12-08T16:03:12.530Z,79.2
2017-12-08T16:04:15.993Z,80
2017-12-08T16:05:24.758Z,80.4
2017-12-08T16:06:28.071Z,80.8
2017-12-08T16:07:31.614Z,81.2
2017-12-08T16:08:35.141Z,81.3
2017-12-08T16:09:38.625Z,82.2
2017-12-08T16:10:42.202Z,83.1
2017-12-08T16:11:46.540Z,83.9
2017-12-08T16:12:50.028Z,84.5
2017-12-08T16:13:53.395Z,84.7
2017-12-08T16:14:56.787Z,85
2017-12-08T16:16:03.884Z,85.9
2017-12-08T16:17:07.375Z,85.3
2017-12-08T16:18:10.910Z,85.6
2017-12-08T16:19:14.793Z,85.9
2017-12-08T16:20:18.273Z,86.3
2017-12-08T16:21:21.632Z,86.4
2017-12-08T16:22:25.131Z,86.2
2017-12-08T16:23:28.680Z,86.3
2017-12-08T16:24:32.074Z,86.2
2017-12-08T16:25:37.601Z,86.2
2017-12-08T16:26:44.684Z,86.4
2017-12-08T16:27:50.378Z,86.7
2017-12-08T16:28:55.224Z,87.1
2017-12-08T16:29:58.667Z,87
2017-12-08T16:31:05.380Z,87.2
2017-12-08T16:32:11.733Z,87.3